createdAt,value
2018-02-20T00:00:06.220Z,35.20
2018-02-20T00:01:06.195Z,34.10
2018-02-20T00:02:06.188Z,35.60
2018-02-20T00:03:06.176Z,34.20
2018-02-20T00:04:06.168Z,35.70
2018-02-20T00:05:06.153Z,36.40
2018-02-20T00:06:06.144Z,34.90
2018-02-20T00:07:06.131Z,38.60
2018-02-20T00:08:06.123Z,34.50
2018-02-20T00:09:06.112Z,34.70
2018-02-20T00:10:06.099Z,32.90
2018-02-20T00:11:06.091Z,35.10
2018-02-20T00:12:06.083Z,35.60
2018-02-20T00:13:06.070Z,36.70
2018-02-20T00:14:06.071Z,36.70
2018-02-20T00:15:06.051Z,35.80
2018-02-20T00:16:06.039Z,35.80
2018-02-20T00:17:06.026Z,36.80
2018-02-20T00:18:06.017Z,37.10
2018-02-20T00:19:06.007Z,35.90
2018-02-20T00:20:05.996Z,36.30
2018-02-20T00:21:05.986Z,37.20
2018-02-20T00:22:05.975Z,37.70
2018-02-20T00:23:05.964Z,37.30
2018-02-20T00:24:05.956Z,39.60
2018-02-20T00:25:05.947Z,38.60
2018-02-20T00:26:05.932Z,38.60
2018-02-20T00:27:05.922Z,39.30
2018-02-20T00:28:05.908Z,37.80
2018-02-20T00:29:05.899Z,40.20
2018-02-20T00:30:05.901Z,37.90
2018-02-20T00:31:05.881Z,39.90
2018-02-20T00:32:05.868Z,40.40
2018-02-20T00:33:05.857Z,39.20
2018-02-20T00:34:05.845Z,37.50
2018-02-20T00:35:05.836Z,40.90
2018-02-20T00:36:05.822Z,40.20
2018-02-20T00:37:05.814Z,40.50
2018-02-20T00:38:05.804Z,41.40
2018-02-20T00:39:05.793Z,39.90
2018-02-20T00:40:05.783Z,42.10
2018-02-20T00:41:05.772Z,41.30
2018-02-20T00:42:05.760Z,42.40
2018-02-20T00:43:05.753Z,41.20
2018-02-20T00:44:05.747Z,41.70
2018-02-20T00:45:05.729Z,41.80
2018-02-20T00:46:05.718Z,41.60
2018-02-20T00:47:05.707Z,40.90
2018-02-20T00:48:05.695Z,43.90
2018-02-20T00:49:05.685Z,41.90
2018-02-20T00:50:05.684Z,43.30
2018-02-20T00:51:05.663Z,44.30
2018-02-20T00:52:05.654Z,43.00
2018-02-20T00:53:05.647Z,44.10
2018-02-20T00:54:05.632Z,42.90
2018-02-20T00:55:05.623Z,44.30
2018-02-20T00:56:05.617Z,45.30
2018-02-20T00:57:05.607Z,43.60
2018-02-20T00:58:05.589Z,43.90
2018-02-20T00:59:05.581Z,45.60
2018-02-20T01:00:05.569Z,46.40
2018-02-20T01:01:05.560Z,43.70
2018-02-20T01:02:05.550Z,46.40
2018-02-20T01:03:05.535Z,44.30
2018-02-20T01:04:05.528Z,44.90
2018-02-20T01:05:05.515Z,45.70
2018-02-20T01:06:05.503Z,46.20
2018-02-20T01:07:05.494Z,46.70
2018-02-20T01:08:05.484Z,45.00
2018-02-20T01:09:05.474Z,46.40
2018-02-20T01:10:05.463Z,47.10
2018-02-20T01:11:05.458Z,46.60
2018-02-20T01:12:05.438Z,46.60
2018-02-20T01:13:05.431Z,46.80
2018-02-20T01:14:05.425Z,48.00
2018-02-20T01:15:05.404Z,49.90
2018-02-20T01:16:05.400Z,49.20
2018-02-20T01:17:05.390Z,48.00
2018-02-20T01:18:05.376Z,49.40
2018-02-20T01:19:05.366Z,47.70
2018-02-20T01:20:05.354Z,49.70
2018-02-20T01:21:05.344Z,48.30
2018-02-20T01:22:05.335Z,48.70
2018-02-20T01:23:05.324Z,49.00
2018-02-20T01:24:05.312Z,50.90
2018-02-20T01:25:05.301Z,46.20
2018-02-20T01:26:05.290Z,50.90
2018-02-20T01:27:05.275Z,51.70
2018-02-20T01:28:05.269Z,48.30
2018-02-20T01:29:05.257Z,50.00
2018-02-20T01:30:05.246Z,51.30
2018-02-20T01:31:05.238Z,52.60
2018-02-20T01:32:05.228Z,51.20
2018-02-20T01:33:05.213Z,50.10
2018-02-20T01:34:05.208Z,50.00
2018-02-20T01:35:05.194Z,48.00
2018-02-20T01:36:05.183Z,49.30
2018-02-20T01:37:05.173Z,50.90
2018-02-20T01:38:05.161Z,49.60
2018-02-20T01:39:05.149Z,50.40
2018-02-20T01:40:05.139Z,49.00
2018-02-20T01:41:05.129Z,48.40
2018-02-20T01:42:05.118Z,48.90
2018-02-20T01:43:05.108Z,48.10
2018-02-20T01:44:05.095Z,47.80
2018-02-20T01:45:05.086Z,47.30
2018-02-20T01:46:05.075Z,46.00
2018-02-20T01:47:05.063Z,49.00
2018-02-20T01:48:05.056Z,48.70
2018-02-20T01:49:05.044Z,47.60
2018-02-20T01:50:05.034Z,48.50
2018-02-20T01:51:05.020Z,47.30
2018-02-20T01:52:05.011Z,47.20
2018-02-20T01:53:04.999Z,50.80
2018-02-20T01:54:04.989Z,50.70
2018-02-20T01:55:04.982Z,49.80
2018-02-20T01:56:04.976Z,49.40
2018-02-20T01:57:04.960Z,48.60
2018-02-20T01:58:04.975Z,48.10
2018-02-20T01:59:04.934Z,48.70
2018-02-20T02:00:04.927Z,48.50
2018-02-20T02:01:04.914Z,48.00
2018-02-20T02:02:04.904Z,46.80
2018-02-20T02:03:04.893Z,50.30
2018-02-20T02:04:04.887Z,46.70
2018-02-20T02:05:04.873Z,47.20
2018-02-20T02:06:04.861Z,48.40
2018-02-20T02:07:04.851Z,48.00
2018-02-20T02:08:04.841Z,45.80
2018-02-20T02:09:04.829Z,48.40
2018-02-20T02:10:04.819Z,47.30
2018-02-20T02:11:04.808Z,47.10
2018-02-20T02:12:04.799Z,46.80
2018-02-20T02:13:04.786Z,47.40
2018-02-20T02:14:04.779Z,47.30
2018-02-20T02:15:04.771Z,46.30
2018-02-20T02:16:04.755Z,47.80
2018-02-20T02:17:04.743Z,49.20
2018-02-20T02:18:04.734Z,48.80
2018-02-20T02:19:04.723Z,48.70
2018-02-20T02:20:04.714Z,47.10
2018-02-20T02:21:04.702Z,49.20
2018-02-20T02:22:04.688Z,49.50
2018-02-20T02:23:04.680Z,49.60
2018-02-20T02:24:04.670Z,49.70
2018-02-20T02:25:04.658Z,50.50
2018-02-20T02:26:04.646Z,51.30
2018-02-20T02:27:04.638Z,50.60
2018-02-20T02:28:04.631Z,50.50
2018-02-20T02:29:04.617Z,51.90
2018-02-20T02:30:04.611Z,47.30
2018-02-20T02:31:04.597Z,48.80
2018-02-20T02:32:04.586Z,49.40
2018-02-20T02:33:04.573Z,50.40
2018-02-20T02:34:04.569Z,51.00
2018-02-20T02:35:04.555Z,49.80
2018-02-20T02:36:04.548Z,51.90
2018-02-20T02:37:04.531Z,50.20
2018-02-20T02:38:04.520Z,50.80
2018-02-20T02:39:04.514Z,52.60
2018-02-20T02:40:04.501Z,51.60
2018-02-20T02:41:04.488Z,50.30
2018-02-20T02:42:04.477Z,50.00
2018-02-20T02:43:04.465Z,53.20
2018-02-20T02:44:04.456Z,51.60
2018-02-20T02:45:04.446Z,53.20
2018-02-20T02:46:04.436Z,51.00
2018-02-20T02:47:04.424Z,52.60
2018-02-20T02:48:04.419Z,54.50
2018-02-20T02:49:04.411Z,53.50
2018-02-20T02:50:04.394Z,52.60
2018-02-20T02:51:04.387Z,55.50
2018-02-20T02:52:04.371Z,54.20
2018-02-20T02:53:04.359Z,53.20
2018-02-20T02:54:04.348Z,54.80
2018-02-20T02:55:04.337Z,53.30
2018-02-20T02:56:04.328Z,52.70
2018-02-20T02:57:04.315Z,56.40
2018-02-20T02:58:04.304Z,56.20
2018-02-20T02:59:04.295Z,55.00
2018-02-20T03:00:04.288Z,54.30
2018-02-20T03:01:04.268Z,56.60
2018-02-20T03:02:04.263Z,56.40
2018-02-20T03:03:04.260Z,57.20
2018-02-20T03:04:04.238Z,58.90
2018-02-20T03:05:04.229Z,56.20
2018-02-20T03:06:04.222Z,57.30
2018-02-20T03:07:04.205Z,57.90
2018-02-20T03:08:04.198Z,57.10
2018-02-20T03:09:04.185Z,58.20
2018-02-20T03:10:04.175Z,58.00
2018-02-20T03:11:04.164Z,55.40
2018-02-20T03:12:04.156Z,57.20
2018-02-20T03:13:04.139Z,57.50
2018-02-20T03:14:04.130Z,58.40
2018-02-20T03:15:04.121Z,58.50
2018-02-20T03:16:04.111Z,60.50
2018-02-20T03:17:04.097Z,59.10
2018-02-20T03:18:04.090Z,57.70
2018-02-20T03:19:04.076Z,58.00
2018-02-20T03:20:04.065Z,59.70
2018-02-20T03:21:04.053Z,59.00
2018-02-20T03:22:04.040Z,57.50
2018-02-20T03:23:04.031Z,57.80
2018-02-20T03:24:04.019Z,60.50
2018-02-20T03:25:04.007Z,59.90
2018-02-20T03:26:04.007Z,58.40
2018-02-20T03:27:03.985Z,61.00
2018-02-20T03:28:03.983Z,61.50
2018-02-20T03:29:03.966Z,60.70
2018-02-20T03:30:03.954Z,59.40
2018-02-20T03:31:03.943Z,62.20
2018-02-20T03:32:03.933Z,57.70
2018-02-20T03:33:03.918Z,59.50
2018-02-20T03:34:03.910Z,59.30
2018-02-20T03:35:03.896Z,60.90
2018-02-20T03:36:03.891Z,60.50
2018-02-20T03:37:03.872Z,59.20
2018-02-20T03:38:03.861Z,62.90
2018-02-20T03:39:03.852Z,60.00
2018-02-20T03:40:03.842Z,59.70
2018-02-20T03:41:03.831Z,59.30
2018-02-20T03:42:03.818Z,61.60
2018-02-20T03:43:03.807Z,60.60
2018-02-20T03:44:03.795Z,60.10
2018-02-20T03:45:03.787Z,60.70
2018-02-20T03:46:03.773Z,60.60
2018-02-20T03:47:03.760Z,63.30
2018-02-20T03:48:03.753Z,61.70
2018-02-20T03:49:03.739Z,60.60
2018-02-20T03:50:03.729Z,61.70
2018-02-20T03:51:03.717Z,63.90
2018-02-20T03:52:03.707Z,60.20
2018-02-20T03:53:03.694Z,61.90
2018-02-20T03:54:03.680Z,62.20
2018-02-20T03:55:03.675Z,62.10
2018-02-20T03:56:03.662Z,60.00
2018-02-20T03:57:03.648Z,61.80
2018-02-20T03:58:03.641Z,60.90
2018-02-20T03:59:03.629Z,61.00
2018-02-20T04:00:03.617Z,63.00
2018-02-20T04:01:03.605Z,62.30
2018-02-20T04:02:03.602Z,59.20
2018-02-20T04:03:03.582Z,61.40
2018-02-20T04:04:03.574Z,62.20
2018-02-20T04:05:03.566Z,60.80
2018-02-20T04:06:03.549Z,62.20
2018-02-20T04:07:03.536Z,61.50
2018-02-20T04:08:03.527Z,61.60
2018-02-20T04:09:03.513Z,60.70
2018-02-20T04:10:03.499Z,62.30
2018-02-20T04:11:03.495Z,64.60
2018-02-20T04:12:03.480Z,61.30
2018-02-20T04:13:03.470Z,63.60
2018-02-20T04:14:03.456Z,60.50
2018-02-20T04:15:03.448Z,64.30
2018-02-20T04:16:03.434Z,62.20
2018-02-20T04:17:03.424Z,62.40
2018-02-20T04:18:03.418Z,62.40
2018-02-20T04:19:03.403Z,62.50
2018-02-20T04:20:03.388Z,63.40
2018-02-20T04:21:03.377Z,62.30
2018-02-20T04:22:03.366Z,63.60
2018-02-20T04:23:03.359Z,64.10
2018-02-20T04:24:03.344Z,65.80
2018-02-20T04:25:03.332Z,62.80
2018-02-20T04:26:03.322Z,63.80
2018-02-20T04:27:03.311Z,63.50
2018-02-20T04:28:03.299Z,61.70
2018-02-20T04:29:03.288Z,63.90
2018-02-20T04:30:03.277Z,60.40
2018-02-20T04:31:03.265Z,64.80
2018-02-20T04:32:03.252Z,62.60
2018-02-20T04:33:03.241Z,60.20
2018-02-20T04:34:03.231Z,60.80
2018-02-20T04:35:03.220Z,62.60
2018-02-20T04:36:03.209Z,63.20
2018-02-20T04:37:03.198Z,62.80
2018-02-20T04:38:03.187Z,61.90
2018-02-20T04:39:03.174Z,64.30
2018-02-20T04:40:03.168Z,61.00
2018-02-20T04:41:03.159Z,63.90
2018-02-20T04:42:03.142Z,63.70
2018-02-20T04:43:03.129Z,62.40
2018-02-20T04:44:03.116Z,63.10
2018-02-20T04:45:03.106Z,64.60
2018-02-20T04:46:03.094Z,61.60
2018-02-20T04:47:03.084Z,64.70
2018-02-20T04:48:03.073Z,61.90
2018-02-20T04:49:03.061Z,65.60
2018-02-20T04:50:03.051Z,62.40
2018-02-20T04:51:03.040Z,63.10
2018-02-20T04:52:03.030Z,62.30
2018-02-20T04:53:03.017Z,64.20
2018-02-20T04:54:03.004Z,63.90
2018-02-20T04:55:02.998Z,65.50
2018-02-20T04:56:02.988Z,64.70
2018-02-20T04:57:02.968Z,63.10
2018-02-20T04:58:02.960Z,63.10
2018-02-20T04:59:02.948Z,66.50
2018-02-20T05:00:02.935Z,62.50
2018-02-20T05:01:02.925Z,63.10
2018-02-20T05:02:02.914Z,67.20
2018-02-20T05:03:02.902Z,65.40
2018-02-20T05:04:02.893Z,65.40
2018-02-20T05:05:02.882Z,64.50
2018-02-20T05:06:02.869Z,63.50
2018-02-20T05:07:02.858Z,64.60
2018-02-20T05:08:02.849Z,64.20
2018-02-20T05:09:02.835Z,63.80
2018-02-20T05:10:02.824Z,63.60
2018-02-20T05:11:02.813Z,63.40
2018-02-20T05:12:02.804Z,66.20
2018-02-20T05:13:02.788Z,67.60
2018-02-20T05:14:02.774Z,64.60
2018-02-20T05:15:02.770Z,63.60
2018-02-20T05:16:02.759Z,65.20
2018-02-20T05:17:02.744Z,63.10
2018-02-20T05:18:02.732Z,66.00
2018-02-20T05:19:02.721Z,63.10
2018-02-20T05:20:02.708Z,61.50
2018-02-20T05:21:02.700Z,64.60
2018-02-20T05:22:02.687Z,63.50
2018-02-20T05:23:02.675Z,63.70
2018-02-20T05:24:02.665Z,62.00
2018-02-20T05:25:02.654Z,63.80
2018-02-20T05:26:02.643Z,64.40
2018-02-20T05:27:02.632Z,61.30
2018-02-20T05:28:02.621Z,64.30
2018-02-20T05:29:02.608Z,62.90
2018-02-20T05:30:02.597Z,63.40
2018-02-20T05:31:02.597Z,62.20
2018-02-20T05:32:02.576Z,64.20
2018-02-20T05:33:02.563Z,63.90
2018-02-20T05:34:02.550Z,63.80
2018-02-20T05:35:02.541Z,64.90
2018-02-20T05:36:02.528Z,65.70
2018-02-20T05:37:02.514Z,64.30
2018-02-20T05:38:02.506Z,64.60
2018-02-20T05:39:02.499Z,62.20
2018-02-20T05:40:02.500Z,62.80
2018-02-20T05:41:02.471Z,64.60
2018-02-20T05:42:02.466Z,63.50
2018-02-20T05:43:02.448Z,63.80
2018-02-20T05:44:02.442Z,64.30
2018-02-20T05:45:02.427Z,64.10
2018-02-20T05:46:02.416Z,62.10
2018-02-20T05:47:02.402Z,61.80
2018-02-20T05:48:02.392Z,63.10
2018-02-20T05:49:02.379Z,65.70
2018-02-20T05:50:02.373Z,61.10
2018-02-20T05:51:02.356Z,64.20
2018-02-20T05:52:02.345Z,60.30
2018-02-20T05:53:02.334Z,62.50
2018-02-20T05:54:02.320Z,61.10
2018-02-20T05:55:02.311Z,58.30
2018-02-20T05:56:02.299Z,63.90
2018-02-20T05:57:02.288Z,61.80
2018-02-20T05:58:02.276Z,63.00
2018-02-20T05:59:02.265Z,62.10
2018-02-20T06:00:02.256Z,63.60
2018-02-20T06:01:02.244Z,63.20
2018-02-20T06:02:02.230Z,64.30
2018-02-20T06:03:02.221Z,62.70
2018-02-20T06:04:02.207Z,66.30
2018-02-20T06:05:02.196Z,62.20
2018-02-20T06:06:02.183Z,64.10
2018-02-20T06:07:02.173Z,64.00
2018-02-20T06:08:02.161Z,63.70
2018-02-20T06:09:02.148Z,62.10
2018-02-20T06:10:02.139Z,60.10
2018-02-20T06:11:02.125Z,64.00
2018-02-20T06:12:02.115Z,63.60
2018-02-20T06:13:02.106Z,63.50
2018-02-20T06:14:02.098Z,65.00
2018-02-20T06:15:02.077Z,64.80
2018-02-20T06:16:02.074Z,64.70
2018-02-20T06:17:02.057Z,65.40
2018-02-20T06:18:02.045Z,63.10
2018-02-20T06:19:02.036Z,63.30
2018-02-20T06:20:02.022Z,62.40
2018-02-20T06:21:02.013Z,63.80
2018-02-20T06:22:01.998Z,63.40
2018-02-20T06:23:01.989Z,64.50
2018-02-20T06:24:01.980Z,62.50
2018-02-20T06:25:01.963Z,65.50
2018-02-20T06:26:01.952Z,62.70
2018-02-20T06:27:01.940Z,63.80
2018-02-20T06:28:01.936Z,64.40
2018-02-20T06:29:01.917Z,64.90
2018-02-20T06:30:01.908Z,61.60
2018-02-20T06:31:01.903Z,62.00
2018-02-20T06:32:01.884Z,61.30
2018-02-20T06:33:01.872Z,66.30
2018-02-20T06:34:01.862Z,62.90
2018-02-20T06:35:01.848Z,64.70
2018-02-20T06:36:01.839Z,62.70
2018-02-20T06:37:01.825Z,63.80
2018-02-20T06:38:01.812Z,61.10
2018-02-20T06:39:01.801Z,65.60
2018-02-20T06:40:01.793Z,63.50
2018-02-20T06:41:01.777Z,64.70
2018-02-20T06:42:01.770Z,65.60
2018-02-20T06:43:01.757Z,62.60
2018-02-20T06:44:01.745Z,64.50
2018-02-20T06:45:01.733Z,66.20
2018-02-20T06:46:01.725Z,66.00
2018-02-20T06:47:01.711Z,63.50
2018-02-20T06:48:01.698Z,63.70
2018-02-20T06:49:01.686Z,64.90
2018-02-20T06:50:01.674Z,62.60
2018-02-20T06:51:01.663Z,63.70
2018-02-20T06:52:01.652Z,66.10
2018-02-20T06:53:01.640Z,64.80
2018-02-20T06:54:01.625Z,64.10
2018-02-20T06:55:01.617Z,64.40
2018-02-20T06:56:01.605Z,66.40
2018-02-20T06:57:01.591Z,69.20
2018-02-20T06:58:01.590Z,66.20
2018-02-20T06:59:01.573Z,65.80
2018-02-20T07:00:01.558Z,66.50
2018-02-20T07:01:01.546Z,64.90
2018-02-20T07:02:01.535Z,66.20
2018-02-20T07:03:01.524Z,68.00
2018-02-20T07:04:01.517Z,63.80
2018-02-20T07:05:01.499Z,66.30
2018-02-20T07:06:01.488Z,65.70
2018-02-20T07:07:01.477Z,65.60
2018-02-20T07:08:01.466Z,66.60
2018-02-20T07:09:01.454Z,65.00
2018-02-20T07:10:01.443Z,70.60
2018-02-20T07:11:01.430Z,66.10
2018-02-20T07:12:01.420Z,67.10
2018-02-20T07:13:01.405Z,69.40
2018-02-20T07:14:01.400Z,65.20
2018-02-20T07:15:01.386Z,64.90
2018-02-20T07:16:01.387Z,69.10
2018-02-20T07:17:01.362Z,64.40
2018-02-20T07:18:01.350Z,65.00
2018-02-20T07:19:01.339Z,67.80
2018-02-20T07:20:01.329Z,67.30
2018-02-20T07:21:01.317Z,65.50
2018-02-20T07:22:01.306Z,66.10
2018-02-20T07:23:01.295Z,65.50
2018-02-20T07:24:01.283Z,65.10
2018-02-20T07:25:01.276Z,66.20
2018-02-20T07:26:01.262Z,67.80
2018-02-20T07:27:01.248Z,64.70
2018-02-20T07:28:01.236Z,69.30
2018-02-20T07:29:01.222Z,68.70
2018-02-20T07:30:01.214Z,64.90
2018-02-20T07:31:01.203Z,66.00
2018-02-20T07:32:01.190Z,66.60
2018-02-20T07:33:01.180Z,70.40
2018-02-20T07:34:01.169Z,66.30
2018-02-20T07:35:01.161Z,68.00
2018-02-20T07:36:01.146Z,67.10
2018-02-20T07:37:01.136Z,66.10
2018-02-20T07:38:01.125Z,68.30
2018-02-20T07:39:01.111Z,65.90
2018-02-20T07:40:01.101Z,69.20
2018-02-20T07:41:01.087Z,69.50
2018-02-20T07:42:01.082Z,66.40
2018-02-20T07:43:01.068Z,68.90
2018-02-20T07:44:01.058Z,66.30
2018-02-20T07:45:01.042Z,66.30
2018-02-20T07:46:01.034Z,64.70
2018-02-20T07:47:01.023Z,68.60
2018-02-20T07:48:01.010Z,66.80
2018-02-20T07:49:01.000Z,66.20
2018-02-20T07:50:00.987Z,69.50
2018-02-20T07:51:00.977Z,64.10
2018-02-20T07:52:00.966Z,67.70
2018-02-20T07:53:00.954Z,67.40
2018-02-20T07:54:00.949Z,65.00
2018-02-20T07:55:00.931Z,66.10
2018-02-20T07:56:00.919Z,66.40
2018-02-20T07:57:00.910Z,64.30
2018-02-20T07:58:00.898Z,66.60
2018-02-20T07:59:00.885Z,64.00
2018-02-20T08:00:00.877Z,63.90
2018-02-20T08:01:00.865Z,64.60
2018-02-20T08:02:00.850Z,63.50
2018-02-20T08:03:00.844Z,64.40
2018-02-20T08:04:00.828Z,65.60
2018-02-20T08:05:00.818Z,63.90
2018-02-20T08:06:00.814Z,62.50
2018-02-20T08:07:00.794Z,66.00
2018-02-20T08:08:00.782Z,63.90
2018-02-20T08:09:00.770Z,64.60
2018-02-20T08:10:00.765Z,62.70
2018-02-20T08:11:00.806Z,64.20
2018-02-20T08:12:00.740Z,62.00
2018-02-20T08:13:00.728Z,63.80
2018-02-20T08:14:00.721Z,62.90
2018-02-20T08:15:00.707Z,63.20
2018-02-20T08:16:00.696Z,62.20
2018-02-20T08:17:00.684Z,63.30
2018-02-20T08:18:00.672Z,64.20
2018-02-20T08:19:00.663Z,63.60
2018-02-20T08:20:00.651Z,63.60
2018-02-20T08:21:00.640Z,63.00
2018-02-20T08:22:00.629Z,61.60
2018-02-20T08:23:00.618Z,65.10
2018-02-20T08:24:00.611Z,61.10
2018-02-20T08:25:00.594Z,60.70
2018-02-20T08:26:00.585Z,59.50
2018-02-20T08:27:00.573Z,61.70
2018-02-20T08:28:00.563Z,63.20
2018-02-20T08:29:00.547Z,61.40
2018-02-20T08:30:00.540Z,61.30
2018-02-20T08:31:00.534Z,61.10
2018-02-20T08:32:00.540Z,63.80
2018-02-20T08:33:00.505Z,62.40
2018-02-20T08:34:00.494Z,61.40
2018-02-20T08:35:00.483Z,62.00
2018-02-20T08:36:00.472Z,61.50
2018-02-20T08:37:00.462Z,63.30
2018-02-20T08:38:00.451Z,61.70
2018-02-20T08:39:00.439Z,60.20
2018-02-20T08:40:00.434Z,62.70
2018-02-20T08:41:00.416Z,61.30
2018-02-20T08:42:00.401Z,59.90
2018-02-20T08:43:00.395Z,64.80
2018-02-20T08:44:00.387Z,61.40
2018-02-20T08:45:00.373Z,60.50
2018-02-20T08:46:00.362Z,63.00
2018-02-20T08:47:00.354Z,60.70
2018-02-20T08:48:00.340Z,61.20
2018-02-20T08:49:00.332Z,59.60
2018-02-20T08:50:00.319Z,61.20
2018-02-20T08:51:00.306Z,63.00
2018-02-20T08:52:00.296Z,60.90
2018-02-20T08:53:00.292Z,61.10
2018-02-20T08:54:00.273Z,59.90
2018-02-20T08:55:00.264Z,61.30
2018-02-20T08:56:00.253Z,64.00
2018-02-20T08:57:00.241Z,60.00
2018-02-20T08:58:00.231Z,59.30
2018-02-20T08:59:00.221Z,58.10
2018-02-20T09:00:00.212Z,59.30
2018-02-20T09:01:00.197Z,62.50
2018-02-20T09:02:00.188Z,58.50
2018-02-20T09:03:00.175Z,57.20
2018-02-20T09:04:00.168Z,56.40
2018-02-20T09:05:00.157Z,57.90
2018-02-20T09:06:00.144Z,59.30
2018-02-20T09:07:00.135Z,60.50
2018-02-20T09:08:00.125Z,59.80
2018-02-20T09:09:00.110Z,60.80
2018-02-20T09:10:00.148Z,61.40
2018-02-20T09:11:00.173Z,60.20
2018-02-20T09:12:00.132Z,62.00
2018-02-20T09:13:00.069Z,61.70
2018-02-20T09:14:00.065Z,57.90
2018-02-20T09:15:00.052Z,59.80
2018-02-20T09:16:00.039Z,58.10
2018-02-20T09:17:00.039Z,58.90
2018-02-20T09:18:00.014Z,59.60
2018-02-20T09:19:00.006Z,63.10
2018-02-20T09:19:59.996Z,57.60
2018-02-20T09:20:59.987Z,62.70
2018-02-20T09:21:59.977Z,57.20
2018-02-20T09:22:59.968Z,62.10
2018-02-20T09:23:59.955Z,58.30
2018-02-20T09:24:59.941Z,57.30
2018-02-20T09:25:59.935Z,58.90
2018-02-20T09:26:59.921Z,58.60
2018-02-20T09:27:59.914Z,60.00
2018-02-20T09:28:59.901Z,59.70
2018-02-20T09:29:59.887Z,58.90
2018-02-20T09:30:59.881Z,58.40
2018-02-20T09:31:59.871Z,59.90
2018-02-20T09:32:59.859Z,60.10
2018-02-20T09:33:59.854Z,58.10
2018-02-20T09:34:59.840Z,58.70
2018-02-20T09:35:59.827Z,59.00
2018-02-20T09:36:59.815Z,59.60
2018-02-20T09:37:59.839Z,59.60
2018-02-20T09:38:59.798Z,57.40
2018-02-20T09:39:59.788Z,63.10
2018-02-20T09:40:59.782Z,62.20
2018-02-20T09:41:59.765Z,62.10
2018-02-20T09:42:59.754Z,57.90
2018-02-20T09:43:59.744Z,57.30
2018-02-20T09:44:59.733Z,61.20
2018-02-20T09:45:59.723Z,61.00
2018-02-20T09:46:59.712Z,56.90
2018-02-20T09:47:59.707Z,62.10
2018-02-20T09:48:59.692Z,61.40
2018-02-20T09:49:59.680Z,60.20
2018-02-20T09:50:59.682Z,57.90
2018-02-20T09:51:59.663Z,57.40
2018-02-20T09:52:59.650Z,61.90
2018-02-20T09:53:59.640Z,59.80
2018-02-20T09:54:59.628Z,59.00
2018-02-20T09:55:59.620Z,57.80
2018-02-20T09:56:59.609Z,58.10
2018-02-20T09:57:59.603Z,57.70
2018-02-20T09:58:59.586Z,56.90
2018-02-20T09:59:59.576Z,60.20
2018-02-20T10:00:59.566Z,57.60
2018-02-20T10:01:59.556Z,56.80
2018-02-20T10:02:59.546Z,58.30
2018-02-20T10:03:59.541Z,56.10
2018-02-20T10:04:59.524Z,56.90
2018-02-20T10:05:59.516Z,56.80
2018-02-20T10:06:59.505Z,56.10
2018-02-20T10:07:59.538Z,57.80
2018-02-20T10:08:59.483Z,55.30
2018-02-20T10:09:59.479Z,56.70
2018-02-20T10:10:59.464Z,58.50
2018-02-20T10:11:59.453Z,56.20
2018-02-20T10:12:59.444Z,54.70
2018-02-20T10:13:59.433Z,53.00
2018-02-20T10:14:59.423Z,55.10
2018-02-20T10:15:59.413Z,54.10
2018-02-20T10:16:59.402Z,53.80
2018-02-20T10:17:59.395Z,54.00
2018-02-20T10:18:59.389Z,52.30
2018-02-20T10:19:59.372Z,52.70
2018-02-20T10:20:59.364Z,50.40
2018-02-20T10:21:59.358Z,52.70
2018-02-20T10:22:59.343Z,48.90
2018-02-20T10:23:59.334Z,50.90
2018-02-20T10:24:59.321Z,50.90
2018-02-20T10:25:59.312Z,45.70
2018-02-20T10:26:59.312Z,49.20
2018-02-20T10:27:59.294Z,48.80
2018-02-20T10:28:59.283Z,48.80
2018-02-20T10:29:59.275Z,50.10
2018-02-20T10:30:59.263Z,47.90
2018-02-20T10:31:59.252Z,50.00
2018-02-20T10:32:59.242Z,47.20
2018-02-20T10:33:59.233Z,49.30
2018-02-20T10:34:59.222Z,45.50
2018-02-20T10:35:59.211Z,46.90
2018-02-20T10:36:59.199Z,45.70
2018-02-20T10:37:59.190Z,47.20
2018-02-20T10:40:31.302Z,44.30
2018-02-20T10:41:31.270Z,45.20
2018-02-20T10:43:24.686Z,45.00
2018-02-20T10:44:24.653Z,45.30
2018-02-20T10:46:18.038Z,44.90
2018-02-20T10:47:18.022Z,42.10
2018-02-20T10:49:11.424Z,42.90
2018-02-20T10:50:11.394Z,43.40
2018-02-20T10:52:04.796Z,43.90
2018-02-20T10:53:04.768Z,44.00
2018-02-20T10:54:58.141Z,43.70
2018-02-20T10:55:58.127Z,41.90
2018-02-20T10:57:51.520Z,42.50
2018-02-20T10:58:51.492Z,42.00
2018-02-20T11:00:44.873Z,42.40
2018-02-20T11:01:44.854Z,42.00
2018-02-20T11:03:38.245Z,42.10
2018-02-20T11:04:38.215Z,42.00
2018-02-20T11:06:31.591Z,41.20
2018-02-20T11:07:31.580Z,40.50
2018-02-20T11:09:24.980Z,40.50
2018-02-20T11:10:24.948Z,40.30
2018-02-20T11:11:24.943Z,41.80
2018-02-20T11:12:24.932Z,41.70
2018-02-20T11:13:24.924Z,40.30
2018-02-20T11:14:24.914Z,38.80
2018-02-20T11:15:24.904Z,36.40
2018-02-20T11:16:24.895Z,37.80
2018-02-20T11:17:24.887Z,37.70
2018-02-20T11:18:24.878Z,37.10
2018-02-20T11:19:24.870Z,36.00
2018-02-20T11:20:24.860Z,36.80
2018-02-20T11:21:24.850Z,35.80
2018-02-20T11:22:24.842Z,36.80
2018-02-20T11:23:24.829Z,34.90
2018-02-20T11:24:24.827Z,36.50
2018-02-20T11:25:24.811Z,35.70
2018-02-20T11:26:24.805Z,34.40
2018-02-20T11:27:24.800Z,35.10
2018-02-20T11:28:24.785Z,34.20
2018-02-20T11:29:24.775Z,35.50
2018-02-20T11:30:24.768Z,38.30
2018-02-20T11:31:24.755Z,36.00
2018-02-20T11:32:24.751Z,36.70
2018-02-20T11:33:24.741Z,36.20
2018-02-20T11:34:24.731Z,35.40
2018-02-20T11:35:24.723Z,35.00
2018-02-20T11:36:24.711Z,34.70
2018-02-20T11:37:24.704Z,37.70
2018-02-20T11:38:24.695Z,33.80
2018-02-20T11:39:24.693Z,37.80
2018-02-20T11:40:24.675Z,36.20
2018-02-20T11:41:24.667Z,37.50
2018-02-20T11:42:24.659Z,37.40
2018-02-20T11:43:24.648Z,36.20
2018-02-20T11:44:24.641Z,36.50
2018-02-20T11:45:24.630Z,35.60
2018-02-20T11:46:24.621Z,37.40
2018-02-20T11:47:24.612Z,37.80
2018-02-20T11:48:24.604Z,35.00
2018-02-20T11:49:24.592Z,37.00
2018-02-20T11:50:24.582Z,37.80
2018-02-20T11:51:24.578Z,35.50
2018-02-20T11:52:24.566Z,37.10
2018-02-20T11:53:24.557Z,36.50
2018-02-20T11:54:24.548Z,36.80
2018-02-20T11:55:24.538Z,37.10
2018-02-20T11:56:24.529Z,36.40
2018-02-20T11:57:24.517Z,36.40
2018-02-20T11:58:24.801Z,36.30
2018-02-20T11:59:24.501Z,33.50
2018-02-20T12:00:24.492Z,37.80
2018-02-20T12:01:24.599Z,36.90
2018-02-20T12:02:24.476Z,35.50
2018-02-20T12:03:24.468Z,36.90
2018-02-20T12:04:24.469Z,33.40
2018-02-20T12:05:24.455Z,36.00
2018-02-20T12:06:24.441Z,33.70
2018-02-20T12:07:24.432Z,35.40
2018-02-20T12:08:24.418Z,36.70
2018-02-20T12:09:24.410Z,34.20
2018-02-20T12:10:24.399Z,34.00
2018-02-20T12:11:24.392Z,33.80
2018-02-20T12:12:24.387Z,35.10
2018-02-20T12:13:24.378Z,32.30
2018-02-20T12:14:24.367Z,33.10
2018-02-20T12:15:24.355Z,33.40
2018-02-20T12:16:24.345Z,32.40
2018-02-20T12:17:24.338Z,32.50
2018-02-20T12:18:24.328Z,32.20
2018-02-20T12:19:24.319Z,31.80
2018-02-20T12:20:24.308Z,31.40
2018-02-20T12:21:24.302Z,31.60
2018-02-20T12:22:24.295Z,31.40
2018-02-20T12:23:24.281Z,32.90
2018-02-20T12:24:24.278Z,30.30
2018-02-20T12:25:24.265Z,29.70
2018-02-20T12:26:24.254Z,31.10
2018-02-20T12:27:24.320Z,31.40
2018-02-20T12:28:24.238Z,30.20
2018-02-20T12:29:24.232Z,29.80
2018-02-20T12:30:24.225Z,27.90
2018-02-20T12:31:24.207Z,32.30
2018-02-20T12:32:24.202Z,33.30
2018-02-20T12:33:24.194Z,31.20
2018-02-20T12:34:24.181Z,29.10
2018-02-20T12:35:24.173Z,28.00
2018-02-20T12:36:24.165Z,28.30
2018-02-20T12:37:24.169Z,31.20
2018-02-20T12:38:24.151Z,28.20
2018-02-20T12:39:24.138Z,29.90
2018-02-20T12:40:24.128Z,30.70
2018-02-20T12:41:24.120Z,30.20
2018-02-20T12:42:24.112Z,31.20
2018-02-20T12:43:24.105Z,31.60
2018-02-20T12:44:24.092Z,30.30
2018-02-20T12:45:24.082Z,32.50
2018-02-20T12:46:24.084Z,31.10
2018-02-20T12:47:24.066Z,28.00
2018-02-20T12:48:24.057Z,29.20
2018-02-20T12:49:24.047Z,33.00
2018-02-20T12:50:24.041Z,29.80
2018-02-20T12:51:24.035Z,31.00
2018-02-20T12:52:24.022Z,30.10
2018-02-20T12:53:24.024Z,30.00
2018-02-20T12:54:24.041Z,29.00
2018-02-20T12:55:23.994Z,28.30
2018-02-20T12:56:23.990Z,30.30
2018-02-20T12:57:23.977Z,28.50
2018-02-20T12:58:23.970Z,29.00
2018-02-20T12:59:23.961Z,30.80
2018-02-20T13:00:23.945Z,28.60
2018-02-20T13:01:23.944Z,27.80
2018-02-20T13:02:23.931Z,30.50